createdAt,value
2019-04-04T00:00:24.494Z,84.35
2019-04-04T00:01:24.482Z,84.35
2019-04-04T00:02:24.469Z,84.56
2019-04-04T00:03:24.499Z,85.07
2019-04-04T00:04:24.497Z,84.66
2019-04-04T00:05:26.213Z,84.77
2019-04-04T00:06:26.697Z,84.77
2019-04-04T00:07:24.459Z,84.97
2019-04-04T00:08:24.404Z,85.31
2019-04-04T00:09:24.394Z,85.59
2019-04-04T00:10:24.383Z,85.28
2019-04-04T00:11:24.376Z,85.07
2019-04-04T00:12:24.404Z,84.66
2019-04-04T00:13:24.351Z,84.45
2019-04-04T00:14:24.337Z,85.07
2019-04-04T00:15:24.372Z,84.87
2019-04-04T00:16:24.319Z,85.01
2019-04-04T00:17:24.346Z,85.22
2019-04-04T00:18:25.488Z,84.91
2019-04-04T00:19:24.284Z,85.31
2019-04-04T00:20:24.273Z,85.11
2019-04-04T00:21:24.263Z,85.52
2019-04-04T00:22:24.253Z,85.52
2019-04-04T00:23:24.279Z,85.42
2019-04-04T00:24:24.270Z,85.31
2019-04-04T00:25:24.219Z,85.94
2019-04-04T00:26:24.207Z,85.22
2019-04-04T00:27:24.197Z,86.04
2019-04-04T00:28:24.192Z,85.31
2019-04-04T00:29:24.243Z,85.11
2019-04-04T00:30:24.165Z,85.42
2019-04-04T00:31:24.178Z,85.31
2019-04-04T00:32:24.181Z,85.52
2019-04-04T00:33:25.735Z,85.22
2019-04-04T00:34:24.122Z,84.80
2019-04-04T00:35:24.111Z,84.59
2019-04-04T00:36:24.141Z,85.22
2019-04-04T00:37:24.124Z,85.11
2019-04-04T00:38:24.075Z,84.80
2019-04-04T00:39:24.062Z,84.80
2019-04-04T00:40:24.053Z,84.80
2019-04-04T00:41:24.086Z,84.80
2019-04-04T00:42:24.036Z,84.49
2019-04-04T00:43:24.019Z,84.70
2019-04-04T00:44:24.007Z,84.66
2019-04-04T00:45:24.003Z,84.70
2019-04-04T00:46:24.030Z,85.11
2019-04-04T00:47:23.975Z,84.19
2019-04-04T00:48:23.967Z,85.01
2019-04-04T00:49:23.957Z,84.80
2019-04-04T00:50:23.949Z,84.39
2019-04-04T00:51:23.930Z,84.70
2019-04-04T00:52:23.963Z,84.80
2019-04-04T00:53:23.969Z,84.53
2019-04-04T00:54:23.899Z,84.39
2019-04-04T00:55:23.887Z,85.01
2019-04-04T00:56:23.874Z,84.84
2019-04-04T00:57:23.866Z,84.84
2019-04-04T00:58:23.861Z,85.11
2019-04-04T00:59:23.882Z,85.31
2019-04-04T01:00:24.546Z,84.80
2019-04-04T01:01:26.059Z,85.01
2019-04-04T01:02:23.816Z,84.70
2019-04-04T01:03:23.843Z,85.05
2019-04-04T01:04:23.839Z,84.74
2019-04-04T01:05:23.779Z,84.74
2019-04-04T01:06:23.769Z,85.46
2019-04-04T01:07:23.756Z,85.57
2019-04-04T01:08:23.745Z,84.84
2019-04-04T01:09:23.739Z,84.84
2019-04-04T01:10:23.762Z,85.67
2019-04-04T01:11:23.757Z,85.36
2019-04-04T01:12:23.702Z,85.15
2019-04-04T01:13:27.245Z,85.36
2019-04-04T01:14:23.684Z,85.46
2019-04-04T01:15:23.706Z,85.36
2019-04-04T01:16:23.678Z,85.05
2019-04-04T01:17:23.649Z,85.25
2019-04-04T01:18:23.635Z,85.15
2019-04-04T01:19:23.663Z,85.77
2019-04-04T01:20:23.615Z,85.36
2019-04-04T01:21:23.608Z,85.50
2019-04-04T01:22:25.134Z,85.25
2019-04-04T01:23:25.144Z,85.36
2019-04-04T01:24:23.608Z,85.36
2019-04-04T01:25:23.600Z,85.97
2019-04-04T01:26:23.594Z,85.39
2019-04-04T01:27:23.540Z,85.60
2019-04-04T01:28:23.523Z,85.25
2019-04-04T01:29:23.515Z,86.22
2019-04-04T01:30:23.504Z,85.57
2019-04-04T01:31:23.492Z,85.50
2019-04-04T01:32:23.522Z,84.47
2019-04-04T01:33:23.473Z,85.67
2019-04-04T01:34:23.459Z,85.50
2019-04-04T01:35:23.448Z,86.22
2019-04-04T01:36:25.355Z,85.71
2019-04-04T01:37:25.206Z,86.22
2019-04-04T01:38:23.419Z,85.71
2019-04-04T01:39:23.407Z,86.02
2019-04-04T01:40:23.393Z,85.71
2019-04-04T01:41:23.387Z,85.81
2019-04-04T01:42:23.429Z,85.91
2019-04-04T01:43:23.362Z,85.91
2019-04-04T01:44:23.358Z,85.91
2019-04-04T01:45:23.403Z,86.22
2019-04-04T01:46:23.337Z,85.81
2019-04-04T01:47:23.315Z,85.91
2019-04-04T01:48:23.304Z,86.43
2019-04-04T01:49:23.294Z,86.02
2019-04-04T01:50:23.369Z,86.02
2019-04-04T01:51:25.466Z,86.22
2019-04-04T01:52:23.259Z,86.32
2019-04-04T01:53:23.251Z,85.60
2019-04-04T01:54:23.289Z,85.71
2019-04-04T01:55:23.229Z,86.22
2019-04-04T01:56:23.221Z,85.81
2019-04-04T01:57:23.205Z,86.02
2019-04-04T01:58:23.198Z,85.81
2019-04-04T01:59:23.184Z,85.81
2019-04-04T02:00:23.219Z,85.91
2019-04-04T02:01:23.207Z,85.81
2019-04-04T02:02:23.163Z,85.91
2019-04-04T02:03:23.374Z,86.26
2019-04-04T02:04:24.786Z,86.05
2019-04-04T02:05:23.126Z,85.81
2019-04-04T02:06:23.112Z,85.75
2019-04-04T02:07:23.150Z,85.95
2019-04-04T02:08:23.087Z,85.60
2019-04-04T02:09:23.076Z,85.81
2019-04-04T02:10:23.068Z,85.13
2019-04-04T02:11:23.054Z,86.12
2019-04-04T02:12:23.054Z,85.23
2019-04-04T02:13:23.073Z,85.33
2019-04-04T02:14:23.032Z,85.23
2019-04-04T02:15:23.011Z,86.16
2019-04-04T02:16:23.043Z,86.02
2019-04-04T02:17:22.986Z,85.81
2019-04-04T02:18:23.586Z,85.60
2019-04-04T02:19:24.815Z,86.22
2019-04-04T02:20:22.958Z,85.71
2019-04-04T02:21:22.942Z,86.12
2019-04-04T02:22:22.974Z,85.71
2019-04-04T02:23:22.922Z,85.85
2019-04-04T02:24:22.916Z,85.39
2019-04-04T02:25:22.898Z,86.02
2019-04-04T02:26:22.892Z,85.50
2019-04-04T02:27:22.919Z,85.02
2019-04-04T02:28:22.871Z,85.85
2019-04-04T02:29:22.904Z,85.23
2019-04-04T02:30:22.846Z,85.75
2019-04-04T02:31:22.853Z,85.02
2019-04-04T02:32:26.127Z,85.75
2019-04-04T02:33:22.819Z,85.44
2019-04-04T02:34:22.806Z,85.44
2019-04-04T02:35:22.846Z,85.95
2019-04-04T02:36:22.781Z,85.44
2019-04-04T02:37:22.813Z,85.44
2019-04-04T02:38:27.033Z,85.13
2019-04-04T02:39:23.754Z,85.85
2019-04-04T02:40:22.735Z,86.05
2019-04-04T02:41:22.763Z,85.95
2019-04-04T02:42:22.753Z,86.05
2019-04-04T02:43:27.333Z,85.95
2019-04-04T02:44:23.691Z,86.05
2019-04-04T02:45:22.681Z,86.16
2019-04-04T02:46:22.711Z,86.05
2019-04-04T02:47:22.701Z,85.75
2019-04-04T02:48:24.413Z,85.30
2019-04-04T02:49:22.680Z,85.64
2019-04-04T02:50:22.626Z,85.54
2019-04-04T02:51:22.616Z,85.54
2019-04-04T02:52:22.604Z,85.33
2019-04-04T02:53:22.594Z,85.23
2019-04-04T02:54:24.614Z,86.16
2019-04-04T02:55:22.578Z,85.75
2019-04-04T02:56:22.558Z,85.64
2019-04-04T02:57:22.551Z,84.72
2019-04-04T02:58:22.538Z,84.92
2019-04-04T02:59:22.600Z,85.54
2019-04-04T03:00:26.343Z,85.85
2019-04-04T03:01:23.501Z,85.85
2019-04-04T03:02:22.503Z,86.57
2019-04-04T03:03:22.485Z,86.47
2019-04-04T03:04:22.526Z,86.16
2019-04-04T03:05:22.460Z,85.23
2019-04-04T03:06:24.507Z,86.12
2019-04-04T03:07:22.446Z,85.85
2019-04-04T03:08:22.436Z,85.95
2019-04-04T03:09:22.418Z,86.05
2019-04-04T03:10:22.454Z,86.02
2019-04-04T03:11:22.943Z,85.39
2019-04-04T03:12:25.694Z,85.39
2019-04-04T03:13:22.378Z,85.39
2019-04-04T03:14:22.359Z,85.81
2019-04-04T03:15:22.358Z,86.22
2019-04-04T03:16:22.604Z,85.81
2019-04-04T03:17:22.329Z,85.95
2019-04-04T03:18:22.325Z,86.02
2019-04-04T03:19:22.313Z,85.75
2019-04-04T03:20:22.300Z,86.47
2019-04-04T03:21:23.572Z,86.94
2019-04-04T03:22:26.953Z,86.68
2019-04-04T03:23:23.262Z,86.05
2019-04-04T03:24:22.252Z,87.19
2019-04-04T03:25:22.298Z,86.36
2019-04-04T03:26:22.257Z,86.88
2019-04-04T03:27:25.743Z,86.26
2019-04-04T03:28:22.211Z,86.98
2019-04-04T03:29:22.196Z,85.95
2019-04-04T03:30:22.187Z,85.75
2019-04-04T03:31:22.243Z,86.36
2019-04-04T03:32:22.170Z,85.71
2019-04-04T03:33:28.987Z,85.60
2019-04-04T03:34:23.152Z,85.39
2019-04-04T03:35:28.309Z,85.60
2019-04-04T03:36:23.175Z,85.09
2019-04-04T03:37:22.109Z,85.71
2019-04-04T03:38:22.109Z,85.67
2019-04-04T03:39:22.137Z,84.74
2019-04-04T03:40:24.620Z,85.19
2019-04-04T03:41:22.065Z,84.78
2019-04-04T03:42:22.058Z,84.88
2019-04-04T03:43:22.087Z,85.60
2019-04-04T03:44:22.033Z,85.09
2019-04-04T03:45:25.971Z,84.94
2019-04-04T03:46:23.007Z,85.36
2019-04-04T03:47:22.051Z,84.53
2019-04-04T03:48:22.035Z,85.15
2019-04-04T03:49:24.455Z,84.94
2019-04-04T03:50:21.968Z,84.36
2019-04-04T03:51:21.959Z,84.27
2019-04-04T03:52:21.944Z,84.16
2019-04-04T03:53:21.973Z,84.57
2019-04-04T03:54:23.298Z,84.67
2019-04-04T03:55:21.918Z,84.57
2019-04-04T03:56:21.899Z,85.09
2019-04-04T03:57:21.889Z,84.99
2019-04-04T03:58:21.876Z,85.13
2019-04-04T03:59:21.908Z,84.88
2019-04-04T04:00:21.862Z,84.78
2019-04-04T04:01:21.847Z,84.99
2019-04-04T04:02:21.835Z,84.88
2019-04-04T04:03:22.743Z,85.30
2019-04-04T04:04:21.852Z,84.78
2019-04-04T04:05:21.803Z,84.64
2019-04-04T04:06:21.844Z,84.84
2019-04-04T04:07:21.784Z,84.33
2019-04-04T04:08:22.290Z,84.33
2019-04-04T04:09:23.513Z,84.43
2019-04-04T04:10:21.746Z,84.49
2019-04-04T04:11:21.781Z,84.01
2019-04-04T04:12:21.736Z,83.71
2019-04-04T04:13:21.711Z,83.50
2019-04-04T04:14:22.661Z,84.12
2019-04-04T04:15:21.697Z,84.64
2019-04-04T04:16:21.684Z,83.91
2019-04-04T04:17:21.722Z,84.01
2019-04-04T04:18:21.951Z,84.12
2019-04-04T04:19:24.233Z,84.12
2019-04-04T04:20:21.644Z,83.91
2019-04-04T04:21:21.624Z,84.64
2019-04-04T04:22:21.613Z,84.84
2019-04-04T04:23:23.896Z,84.53
2019-04-04T04:24:21.604Z,84.53
2019-04-04T04:25:21.586Z,84.12
2019-04-04T04:26:21.618Z,83.75
2019-04-04T04:27:21.568Z,84.67
2019-04-04T04:28:21.577Z,84.99
2019-04-04T04:29:21.539Z,85.30
2019-04-04T04:30:21.551Z,84.67
2019-04-04T04:31:21.525Z,84.88
2019-04-04T04:32:22.704Z,84.99
2019-04-04T04:33:21.502Z,85.09
2019-04-04T04:34:21.534Z,84.84
2019-04-04T04:35:21.471Z,84.47
2019-04-04T04:36:21.463Z,84.67
2019-04-04T04:37:21.451Z,84.78
2019-04-04T04:38:25.599Z,84.67
2019-04-04T04:39:22.475Z,84.94
2019-04-04T04:40:21.468Z,84.84
2019-04-04T04:41:21.489Z,84.74
2019-04-04T04:42:21.647Z,84.84
2019-04-04T04:43:21.384Z,84.88
2019-04-04T04:44:21.371Z,84.53
2019-04-04T04:45:21.377Z,84.67
2019-04-04T04:46:21.349Z,85.39
2019-04-04T04:47:23.850Z,85.71
2019-04-04T04:48:21.326Z,85.57
2019-04-04T04:49:23.272Z,85.09
2019-04-04T04:50:21.304Z,85.39
2019-04-04T04:51:21.296Z,84.33
2019-04-04T04:52:21.328Z,84.43
2019-04-04T04:53:21.314Z,84.33
2019-04-04T04:54:22.898Z,83.50
2019-04-04T04:55:21.248Z,84.16
2019-04-04T04:56:21.240Z,84.57
2019-04-04T04:57:29.479Z,84.36
2019-04-04T04:58:22.260Z,83.64
2019-04-04T04:59:21.228Z,84.99
2019-04-04T05:00:21.195Z,84.99
2019-04-04T05:01:21.207Z,85.36
2019-04-04T05:02:22.358Z,84.84
2019-04-04T05:03:22.171Z,84.78
2019-04-04T05:04:21.209Z,84.27
2019-04-04T05:05:21.145Z,84.84
2019-04-04T05:06:21.166Z,84.43
2019-04-04T05:07:21.128Z,84.22
2019-04-04T05:08:21.125Z,84.53
2019-04-04T05:09:21.108Z,84.29
2019-04-04T05:10:21.165Z,83.61
2019-04-04T05:11:21.085Z,83.56
2019-04-04T05:12:21.913Z,84.01
2019-04-04T05:13:21.053Z,83.19
2019-04-04T05:14:21.088Z,84.01
2019-04-04T05:15:21.388Z,84.33
2019-04-04T05:16:21.021Z,83.81
2019-04-04T05:17:21.006Z,83.56
2019-04-04T05:18:21.010Z,83.98
2019-04-04T05:19:20.985Z,83.98
2019-04-04T05:20:21.020Z,83.56
2019-04-04T05:21:25.552Z,83.15
2019-04-04T05:22:22.001Z,83.36
2019-04-04T05:23:21.006Z,83.15
2019-04-04T05:24:20.976Z,83.19
2019-04-04T05:25:20.943Z,83.50
2019-04-04T05:26:20.977Z,83.40
2019-04-04T05:27:20.901Z,83.61
2019-04-04T05:28:20.892Z,84.53
2019-04-04T05:29:20.897Z,84.49
2019-04-04T05:30:20.909Z,84.33
2019-04-04T05:31:20.866Z,84.64
2019-04-04T05:32:21.689Z,84.29
2019-04-04T05:33:22.828Z,85.01
2019-04-04T05:34:20.831Z,84.22
2019-04-04T05:35:20.811Z,84.33
2019-04-04T05:36:20.817Z,84.33
2019-04-04T05:37:20.789Z,84.53
2019-04-04T05:38:20.820Z,84.94
2019-04-04T05:39:20.781Z,84.49
2019-04-04T05:40:23.259Z,84.39
2019-04-04T05:41:20.789Z,83.98
2019-04-04T05:42:20.741Z,84.49
2019-04-04T05:43:20.785Z,84.19
2019-04-04T05:44:20.719Z,84.29
2019-04-04T05:45:20.711Z,83.36
2019-04-04T05:46:20.701Z,83.67
2019-04-04T05:47:22.901Z,83.98
2019-04-04T05:48:20.690Z,84.08
2019-04-04T05:49:20.722Z,84.59
2019-04-04T05:50:20.700Z,83.56
2019-04-04T05:51:20.651Z,84.08
2019-04-04T05:52:20.640Z,83.26
2019-04-04T05:53:21.559Z,83.98
2019-04-04T05:54:20.602Z,83.36
2019-04-04T05:55:20.651Z,83.26
2019-04-04T05:56:20.584Z,83.36
2019-04-04T05:57:20.795Z,83.12
2019-04-04T05:58:22.588Z,83.77
2019-04-04T05:59:23.631Z,83.32
2019-04-04T06:00:20.551Z,83.94
2019-04-04T06:01:20.528Z,83.67
2019-04-04T06:02:20.530Z,83.84
2019-04-04T06:03:20.611Z,84.05
2019-04-04T06:04:20.517Z,84.14
2019-04-04T06:05:20.538Z,84.05
2019-04-04T06:06:20.475Z,83.42
2019-04-04T06:07:20.490Z,84.45
2019-04-04T06:08:20.471Z,83.22
2019-04-04T06:09:20.528Z,83.53
2019-04-04T06:10:20.474Z,84.25
2019-04-04T06:11:21.653Z,83.49
2019-04-04T06:12:20.509Z,82.87
2019-04-04T06:13:22.217Z,83.18
2019-04-04T06:14:20.744Z,82.63
2019-04-04T06:15:20.592Z,83.25
2019-04-04T06:16:20.378Z,82.93
2019-04-04T06:17:20.398Z,83.25
2019-04-04T06:18:20.336Z,82.87
2019-04-04T06:19:20.387Z,83.25
2019-04-04T06:20:20.373Z,83.25
2019-04-04T06:21:20.317Z,82.53
2019-04-04T06:22:21.256Z,83.25
2019-04-04T06:23:20.612Z,82.83
2019-04-04T06:24:20.345Z,82.32
2019-04-04T06:25:20.275Z,82.53
2019-04-04T06:26:20.293Z,82.73
2019-04-04T06:27:20.274Z,83.14
2019-04-04T06:28:20.255Z,82.79
2019-04-04T06:29:20.222Z,83.35
2019-04-04T06:30:20.787Z,82.93
2019-04-04T06:31:20.246Z,83.25
2019-04-04T06:32:20.252Z,82.83
2019-04-04T06:33:20.191Z,83.35
2019-04-04T06:34:20.188Z,82.53
2019-04-04T06:35:20.162Z,82.63
2019-04-04T06:36:20.159Z,83.14
2019-04-04T06:37:20.669Z,83.25
2019-04-04T06:38:22.969Z,82.93
2019-04-04T06:39:20.171Z,82.83
2019-04-04T06:40:20.144Z,83.11
2019-04-04T06:41:20.094Z,82.32
2019-04-04T06:42:20.073Z,82.93
2019-04-04T06:43:20.093Z,82.59
2019-04-04T06:44:20.061Z,82.63
2019-04-04T06:45:20.112Z,82.32
2019-04-04T06:46:22.728Z,82.42
2019-04-04T06:47:20.042Z,83.04
2019-04-04T06:48:20.032Z,83.25
2019-04-04T06:49:20.013Z,83.11
2019-04-04T06:50:19.998Z,82.48
2019-04-04T06:51:20.067Z,82.18
2019-04-04T06:52:19.976Z,83.20
2019-04-04T06:53:21.865Z,83.17
2019-04-04T06:54:19.958Z,83.27
2019-04-04T06:55:19.937Z,82.55
2019-04-04T06:56:19.952Z,82.04
2019-04-04T06:57:19.973Z,82.55
2019-04-04T06:58:19.914Z,81.83
2019-04-04T06:59:19.903Z,81.21
2019-04-04T07:00:19.893Z,81.11
2019-04-04T07:01:21.997Z,81.87
2019-04-04T07:02:19.865Z,82.39
2019-04-04T07:03:19.901Z,82.28
2019-04-04T07:04:19.836Z,82.28
2019-04-04T07:05:19.824Z,81.73
2019-04-04T07:06:19.829Z,82.14
2019-04-04T07:07:19.809Z,82.34
2019-04-04T07:08:19.837Z,82.65
2019-04-04T07:09:19.801Z,82.76
2019-04-04T07:10:21.829Z,82.04
2019-04-04T07:11:21.571Z,82.45
2019-04-04T07:12:24.347Z,82.24
2019-04-04T07:13:22.514Z,82.24
2019-04-04T07:14:21.617Z,82.34
2019-04-04T07:15:19.735Z,82.76
2019-04-04T07:16:19.710Z,82.20
2019-04-04T07:17:19.717Z,82.00
2019-04-04T07:18:19.689Z,81.79
2019-04-04T07:19:19.762Z,80.87
2019-04-04T07:20:19.679Z,81.11
2019-04-04T07:21:20.243Z,81.11
2019-04-04T07:22:20.591Z,82.14
2019-04-04T07:23:19.681Z,82.55
2019-04-04T07:24:19.635Z,82.55
2019-04-04T07:25:19.613Z,82.45
2019-04-04T07:26:19.637Z,82.20
2019-04-04T07:27:19.643Z,81.90
2019-04-04T07:28:19.720Z,82.31
2019-04-04T07:29:19.625Z,81.69
2019-04-04T07:30:19.559Z,82.10
2019-04-04T07:31:19.540Z,82.10
2019-04-04T07:32:19.571Z,82.71
2019-04-04T07:33:21.340Z,82.06
2019-04-04T07:34:19.510Z,81.24
2019-04-04T07:35:21.079Z,82.06
2019-04-04T07:36:20.231Z,82.57
2019-04-04T07:37:21.872Z,81.04
2019-04-04T07:38:19.476Z,80.83
2019-04-04T07:39:21.196Z,81.24
2019-04-04T07:40:20.396Z,81.07
2019-04-04T07:41:19.481Z,81.55
2019-04-04T07:42:19.525Z,82.20
2019-04-04T07:43:20.107Z,82.47
2019-04-04T07:44:21.172Z,82.37
2019-04-04T07:45:19.382Z,82.78
2019-04-04T07:46:19.429Z,81.34
2019-04-04T07:47:19.552Z,81.10
2019-04-04T07:48:19.415Z,80.73
2019-04-04T07:49:21.103Z,80.83
2019-04-04T07:50:19.419Z,82.03
2019-04-04T07:51:19.344Z,80.79
2019-04-04T07:52:19.319Z,80.32
2019-04-04T07:53:19.298Z,79.80
2019-04-04T07:54:19.293Z,80.90
2019-04-04T07:55:19.416Z,80.07
2019-04-04T07:56:19.316Z,81.00
2019-04-04T07:57:19.874Z,80.90
2019-04-04T07:58:19.418Z,82.03
2019-04-04T07:59:19.253Z,80.76
2019-04-04T08:00:19.220Z,81.37
2019-04-04T08:01:19.248Z,80.86
2019-04-04T08:02:19.258Z,80.96
2019-04-04T08:03:19.202Z,80.55
2019-04-04T08:04:19.243Z,78.60
2019-04-04T08:05:19.166Z,79.15
2019-04-04T08:06:19.186Z,79.97
2019-04-04T08:07:19.161Z,80.07
2019-04-04T08:08:19.135Z,80.58
2019-04-04T08:09:19.200Z,80.86
2019-04-04T08:10:20.864Z,80.79
2019-04-04T08:11:19.095Z,80.76
2019-04-04T08:12:19.084Z,80.55
2019-04-04T08:13:19.160Z,80.65
2019-04-04T08:14:19.095Z,79.11
2019-04-04T08:15:19.051Z,80.76
2019-04-04T08:16:19.041Z,78.39
2019-04-04T08:17:19.248Z,79.38
2019-04-04T08:18:19.070Z,78.60
2019-04-04T08:19:19.007Z,78.91
2019-04-04T08:20:19.087Z,80.04
2019-04-04T08:21:19.002Z,81.02
2019-04-04T08:22:19.175Z,77.68
2019-04-04T08:23:18.964Z,79.11
2019-04-04T08:24:19.008Z,78.36
2019-04-04T08:25:18.968Z,78.91
2019-04-04T08:26:18.941Z,78.39
2019-04-04T08:27:18.962Z,76.86
2019-04-04T08:28:18.922Z,77.58
2019-04-04T08:29:18.956Z,78.43
2019-04-04T08:30:19.026Z,78.91
2019-04-04T08:31:18.897Z,77.78
2019-04-04T08:32:18.881Z,77.68
2019-04-04T08:33:18.873Z,77.71
2019-04-04T08:34:18.886Z,77.40
2019-04-04T08:35:18.846Z,76.68
2019-04-04T08:36:19.534Z,77.17
2019-04-04T08:37:18.825Z,76.89
2019-04-04T08:38:18.797Z,77.47
2019-04-04T08:39:18.798Z,76.75
2019-04-04T08:40:18.832Z,76.45
2019-04-04T08:41:18.756Z,75.87
2019-04-04T08:42:18.753Z,76.93
2019-04-04T08:43:18.914Z,77.03
2019-04-04T08:44:18.735Z,77.68
2019-04-04T08:45:18.728Z,78.20
2019-04-04T08:46:20.117Z,78.50
2019-04-04T08:47:18.837Z,78.40
2019-04-04T08:48:19.020Z,77.99
2019-04-04T08:49:18.671Z,77.37
2019-04-04T08:50:18.660Z,76.65
2019-04-04T08:51:18.701Z,76.25
2019-04-04T08:52:20.767Z,74.29
2019-04-04T08:53:18.693Z,74.29
2019-04-04T08:54:18.717Z,74.77
2019-04-04T08:55:18.611Z,74.98
2019-04-04T08:56:18.635Z,74.67
2019-04-04T08:57:18.592Z,74.77
2019-04-04T08:58:18.576Z,75.49
2019-04-04T08:59:18.570Z,76.10
2019-04-04T09:00:18.587Z,75.80
2019-04-04T09:01:18.577Z,75.18
2019-04-04T09:02:18.528Z,76.42
2019-04-04T09:03:18.519Z,75.49
2019-04-04T09:04:18.514Z,74.87
2019-04-04T09:05:18.502Z,74.05
2019-04-04T09:06:18.531Z,74.98
2019-04-04T09:07:18.515Z,75.70
2019-04-04T09:08:18.488Z,74.98
2019-04-04T09:09:18.554Z,75.08
2019-04-04T09:10:18.753Z,74.77
2019-04-04T09:11:18.444Z,74.98
2019-04-04T09:12:18.411Z,74.46
2019-04-04T09:13:18.448Z,75.18
2019-04-04T09:14:18.391Z,76.00
2019-04-04T09:15:18.424Z,75.49
2019-04-04T09:16:18.429Z,76.93
2019-04-04T09:17:18.404Z,76.82
2019-04-04T09:18:18.356Z,76.93
2019-04-04T09:19:18.336Z,76.00
2019-04-04T09:20:18.320Z,76.82
2019-04-04T09:21:18.333Z,76.21
2019-04-04T09:22:18.357Z,76.00
2019-04-04T09:23:18.292Z,75.49
2019-04-04T09:24:18.277Z,76.04
2019-04-04T09:25:18.332Z,75.59
2019-04-04T09:26:18.273Z,75.80
2019-04-04T09:27:18.643Z,74.05
2019-04-04T09:28:18.272Z,75.52
2019-04-04T09:29:18.266Z,75.83
2019-04-04T09:30:18.213Z,75.49
2019-04-04T09:31:18.204Z,75.59
2019-04-04T09:32:18.203Z,74.98
2019-04-04T09:33:20.921Z,74.22
2019-04-04T09:34:18.197Z,75.04
2019-04-04T09:35:18.336Z,74.57
2019-04-04T09:36:18.176Z,74.77
2019-04-04T09:37:18.197Z,74.67
2019-04-04T09:38:18.125Z,74.46
2019-04-04T09:39:18.129Z,74.87
2019-04-04T09:40:18.183Z,74.26
2019-04-04T09:41:19.823Z,75.49
2019-04-04T09:42:21.760Z,75.59
2019-04-04T09:43:20.704Z,74.67
2019-04-04T09:44:18.093Z,74.77
2019-04-04T09:45:18.107Z,73.13
2019-04-04T09:46:18.074Z,73.98
2019-04-04T09:47:18.109Z,73.88
2019-04-04T09:48:18.053Z,73.88
2019-04-04T09:49:20.344Z,73.98
2019-04-04T09:50:18.006Z,73.88
2019-04-04T09:51:17.972Z,74.40
2019-04-04T09:52:18.109Z,74.77
2019-04-04T09:53:18.004Z,72.82
2019-04-04T09:54:19.441Z,73.74
2019-04-04T09:55:18.042Z,73.02
2019-04-04T09:56:17.946Z,73.95
2019-04-04T09:57:18.183Z,71.69
2019-04-04T09:58:18.250Z,72.13
2019-04-04T09:59:18.217Z,73.88
2019-04-04T10:00:17.880Z,73.10
2019-04-04T10:01:17.866Z,73.91
2019-04-04T10:02:18.283Z,72.48
2019-04-04T10:03:17.856Z,74.53
2019-04-04T10:04:19.108Z,69.19
2019-04-04T10:05:17.970Z,72.20
2019-04-04T10:06:17.837Z,71.69
2019-04-04T10:07:17.845Z,72.75
2019-04-04T10:08:17.860Z,72.44
2019-04-04T10:09:17.791Z,72.72
2019-04-04T10:10:17.803Z,73.54
2019-04-04T10:11:17.766Z,73.50
2019-04-04T10:12:17.730Z,70.73
2019-04-04T10:13:17.743Z,71.86
2019-04-04T10:14:17.862Z,70.94
2019-04-04T10:15:17.704Z,71.76
2019-04-04T10:16:17.730Z,71.97
2019-04-04T10:17:17.802Z,71.35
2019-04-04T10:18:17.720Z,72.48
2019-04-04T10:19:17.655Z,72.17
2019-04-04T10:20:17.640Z,73.19
2019-04-04T10:21:17.693Z,73.81
2019-04-04T10:22:17.625Z,72.17
2019-04-04T10:23:17.613Z,73.19
2019-04-04T10:24:17.596Z,73.40
2019-04-04T10:25:17.666Z,72.27
2019-04-04T10:26:17.577Z,72.78
2019-04-04T10:27:17.563Z,71.97
2019-04-04T10:28:17.623Z,72.06
2019-04-04T10:29:17.550Z,72.06
2019-04-04T10:30:17.542Z,74.32
2019-04-04T10:31:17.557Z,71.83
2019-04-04T10:32:17.526Z,71.93
2019-04-04T10:33:17.508Z,73.91
2019-04-04T10:34:17.526Z,73.81
2019-04-04T10:35:17.486Z,73.81
2019-04-04T10:36:17.476Z,73.64
2019-04-04T10:37:17.456Z,74.36
2019-04-04T10:38:17.459Z,74.36
2019-04-04T10:39:28.229Z,74.87
2019-04-04T10:41:27.890Z,74.77
2019-04-04T10:42:28.768Z,73.64
2019-04-04T10:43:27.764Z,75.87
2019-04-04T10:44:27.751Z,75.35
2019-04-04T10:45:27.778Z,73.54
2019-04-04T10:46:27.716Z,75.29
2019-04-04T10:47:27.714Z,74.43
2019-04-04T10:48:28.252Z,74.53
2019-04-04T10:49:27.749Z,74.67
2019-04-04T10:50:27.721Z,74.87
2019-04-04T10:51:27.670Z,74.98
2019-04-04T10:52:27.717Z,75.49
2019-04-04T10:53:27.641Z,75.29
2019-04-04T10:54:27.638Z,72.92
2019-04-04T10:55:27.683Z,73.95
2019-04-04T10:56:27.633Z,73.61
2019-04-04T10:57:27.649Z,72.27
2019-04-04T10:58:27.602Z,73.57
2019-04-04T10:59:27.577Z,74.19
2019-04-04T11:00:30.357Z,72.61
2019-04-04T11:01:27.560Z,71.72
2019-04-04T11:02:27.587Z,73.47
2019-04-04T11:03:27.527Z,73.81
2019-04-04T11:04:27.525Z,74.60
2019-04-04T11:05:27.954Z,76.65
2019-04-04T11:06:27.496Z,75.76
2019-04-04T11:07:27.493Z,74.43
2019-04-04T11:08:27.544Z,73.61
2019-04-04T11:09:27.457Z,74.02
2019-04-04T11:10:27.455Z,74.84
2019-04-04T11:11:27.487Z,74.12
2019-04-04T11:12:27.427Z,73.71
2019-04-04T11:13:33.539Z,74.22
2019-04-04T11:14:28.476Z,74.53
2019-04-04T11:15:27.410Z,75.52
2019-04-04T11:16:30.407Z,76.24
2019-04-04T11:17:27.418Z,75.49
2019-04-04T11:18:27.387Z,75.38
2019-04-04T11:19:31.468Z,75.93
2019-04-04T11:20:27.350Z,75.11
2019-04-04T11:21:27.331Z,76.14
2019-04-04T11:22:27.321Z,75.83
2019-04-04T11:23:27.547Z,75.42
2019-04-04T11:24:27.295Z,75.83
2019-04-04T11:25:27.288Z,75.11
2019-04-04T11:26:27.273Z,75.59
2019-04-04T11:27:27.281Z,75.59
2019-04-04T11:28:27.244Z,74.57
2019-04-04T11:29:27.284Z,75.28
2019-04-04T11:30:27.242Z,75.38
2019-04-04T11:31:27.867Z,76.51
2019-04-04T11:32:27.216Z,76.48
2019-04-04T11:33:27.215Z,77.61
2019-04-04T11:34:27.197Z,76.75
2019-04-04T11:35:27.175Z,72.24
2019-04-04T11:36:27.158Z,71.66
2019-04-04T11:37:27.187Z,73.50
2019-04-04T11:38:27.202Z,74.05
2019-04-04T11:39:27.154Z,74.60
2019-04-04T11:40:27.112Z,73.88
2019-04-04T11:41:27.171Z,73.40
2019-04-04T11:42:27.113Z,74.91
2019-04-04T11:43:27.169Z,74.80
2019-04-04T11:44:27.098Z,75.73
2019-04-04T11:45:27.056Z,74.40
2019-04-04T11:46:27.061Z,76.65
2019-04-04T11:47:27.033Z,76.34
2019-04-04T11:48:27.026Z,77.40
2019-04-04T11:49:27.151Z,78.33
2019-04-04T11:50:27.013Z,78.12
2019-04-04T11:51:27.010Z,80.18
2019-04-04T11:52:27.028Z,78.02
2019-04-04T11:53:26.965Z,78.27
2019-04-04T11:54:26.965Z,78.67
2019-04-04T11:55:26.990Z,79.49
2019-04-04T11:56:27.002Z,80.32
2019-04-04T11:57:26.950Z,79.39
2019-04-04T11:58:26.917Z,80.69
2019-04-04T11:59:26.900Z,78.94
2019-04-04T12:00:27.376Z,79.46
2019-04-04T12:01:27.483Z,77.61
2019-04-04T12:02:26.906Z,77.71
2019-04-04T12:03:26.880Z,78.53
2019-04-04T12:04:26.856Z,78.33
2019-04-04T12:05:27.267Z,78.47
2019-04-04T12:06:27.414Z,77.23
2019-04-04T12:07:26.943Z,78.16
2019-04-04T12:08:26.808Z,78.43
2019-04-04T12:09:26.824Z,78.33
2019-04-04T12:10:26.775Z,78.02
2019-04-04T12:11:26.839Z,77.34
2019-04-04T12:12:26.752Z,77.65
2019-04-04T12:13:27.371Z,77.13
2019-04-04T12:14:26.849Z,78.64
2019-04-04T12:15:26.755Z,77.30
2019-04-04T12:16:26.701Z,77.81
2019-04-04T12:17:26.741Z,76.68
2019-04-04T12:18:26.730Z,77.51
2019-04-04T12:19:26.668Z,76.68
2019-04-04T12:20:26.651Z,76.38
2019-04-04T12:21:26.840Z,78.12
2019-04-04T12:22:26.685Z,76.96
2019-04-04T12:23:26.645Z,76.86
2019-04-04T12:24:26.632Z,76.75
2019-04-04T12:25:26.611Z,76.86
2019-04-04T12:26:26.883Z,76.96
2019-04-04T12:27:26.640Z,75.83
2019-04-04T12:28:26.646Z,76.34
2019-04-04T12:29:26.606Z,75.73
2019-04-04T12:30:27.349Z,74.84
2019-04-04T12:31:26.540Z,75.56
2019-04-04T12:32:26.538Z,75.15
2019-04-04T12:33:26.551Z,76.07
2019-04-04T12:34:26.519Z,76.07
2019-04-04T12:35:27.392Z,75.80
2019-04-04T12:36:26.577Z,76.42
2019-04-04T12:37:27.433Z,76.51
2019-04-04T12:38:26.451Z,77.34
2019-04-04T12:39:26.456Z,76.93
2019-04-04T12:40:26.492Z,76.51
2019-04-04T12:41:28.465Z,79.15
2019-04-04T12:42:26.460Z,77.71
2019-04-04T12:43:26.495Z,77.17
2019-04-04T12:44:27.373Z,75.76
2019-04-04T12:45:26.529Z,75.87
2019-04-04T12:46:26.489Z,76.07
2019-04-04T12:47:26.367Z,77.92
2019-04-04T12:48:26.338Z,77.00
2019-04-04T12:49:26.401Z,75.66
2019-04-04T12:50:26.317Z,76.89
2019-04-04T12:51:26.575Z,76.28
2019-04-04T12:52:26.357Z,75.76
2019-04-04T12:53:26.278Z,76.45